createdAt,value
2022-09-03T00:00:14.654Z,6.18
2022-09-03T00:02:45.854Z,5.05
2022-09-03T00:05:21.469Z,6.88
2022-09-03T00:07:56.421Z,5.03
2022-09-03T00:10:29.727Z,5.05
2022-09-03T00:13:02.829Z,5.47
2022-09-03T00:15:33.535Z,3.05
2022-09-03T00:18:05.649Z,4.18
2022-09-03T00:20:37.661Z,5.47
2022-09-03T00:23:08.370Z,3.08
2022-09-03T00:25:39.969Z,3.92
2022-09-03T00:28:13.819Z,2.70
2022-09-03T00:30:45.313Z,3.03
2022-09-03T00:33:19.226Z,2.65
2022-09-03T00:35:49.475Z,2.72
2022-09-03T00:38:16.665Z,1.75
2022-09-03T00:41:01.647Z,4.32
2022-09-03T00:43:48.184Z,4.25
2022-09-03T00:46:23.730Z,3.00
2022-09-03T00:49:06.450Z,3.08
2022-09-03T00:51:38.562Z,1.95
2022-09-03T00:54:15.350Z,1.23
2022-09-03T00:56:51.565Z,2.83
2022-09-03T00:59:31.125Z,5.60
2022-09-03T01:02:12.314Z,5.45
2022-09-03T01:04:55.001Z,1.90
2022-09-03T01:07:34.244Z,2.70
2022-09-03T01:10:13.842Z,1.77
2022-09-03T01:12:51.645Z,3.30
2022-09-03T01:15:30.825Z,1.70
2022-09-03T01:18:20.385Z,1.23
2022-09-03T01:21:10.036Z,2.17
2022-09-03T01:23:50.726Z,0.85
2022-09-03T01:26:38.377Z,5.68
2022-09-03T01:29:16.306Z,0.60
2022-09-03T01:31:54.080Z,2.92
2022-09-03T01:34:28.156Z,1.95
2022-09-03T01:37:05.802Z,0.63
2022-09-03T01:39:41.946Z,4.25
2022-09-03T01:42:21.215Z,1.55
2022-09-03T01:45:13.357Z,0.60
2022-09-03T01:47:54.701Z,0.93
2022-09-03T01:50:34.094Z,0.60
2022-09-03T01:53:10.597Z,1.35
2022-09-03T01:55:47.337Z,4.47
2022-09-03T01:58:21.140Z,1.80
2022-09-03T02:00:59.171Z,1.33
2022-09-03T02:03:33.679Z,2.13
2022-09-03T02:06:00.902Z,6.75
2022-09-03T02:08:28.209Z,4.35
2022-09-03T02:11:02.868Z,1.02
2022-09-03T02:13:33.486Z,1.48
2022-09-03T02:16:08.041Z,2.80
2022-09-03T02:18:38.491Z,2.60
2022-09-03T02:21:07.025Z,2.58
2022-09-03T02:23:34.326Z,1.45
2022-09-03T02:26:03.861Z,0.98
2022-09-03T02:28:32.479Z,2.17
2022-09-03T02:31:01.376Z,0.52
2022-09-03T02:33:28.593Z,1.23
2022-09-03T02:35:56.246Z,1.25
2022-09-03T02:38:26.328Z,2.50
2022-09-03T02:40:56.718Z,2.33
2022-09-03T02:43:30.831Z,3.85
2022-09-03T02:46:03.701Z,1.83
2022-09-03T02:48:31.444Z,2.03
2022-09-03T02:50:59.138Z,4.05
2022-09-03T02:53:29.015Z,2.50
2022-09-03T02:56:00.073Z,1.77
2022-09-03T02:58:28.662Z,1.88
2022-09-03T03:00:55.838Z,1.73
2022-09-03T03:03:24.614Z,2.90
2022-09-03T03:05:53.364Z,2.40
2022-09-03T03:08:23.967Z,1.42
2022-09-03T03:10:52.422Z,1.88
2022-09-03T03:13:20.124Z,4.95
2022-09-03T03:15:49.085Z,3.33
2022-09-03T03:18:17.661Z,5.32
2022-09-03T03:20:48.395Z,4.93
2022-09-03T03:23:15.806Z,1.90
2022-09-03T03:25:43.045Z,3.30
2022-09-03T03:28:13.897Z,5.28
2022-09-03T03:30:42.927Z,3.22
2022-09-03T03:33:10.535Z,3.38
2022-09-03T03:35:37.844Z,5.40
2022-09-03T03:38:07.038Z,6.43
2022-09-03T03:40:34.926Z,5.55
2022-09-03T03:43:02.209Z,3.80
2022-09-03T03:45:29.585Z,5.00
2022-09-03T03:47:58.242Z,31.58
2022-09-03T03:50:25.777Z,25.55
2022-09-03T03:52:53.073Z,7.15
2022-09-03T03:55:21.786Z,2.90
2022-09-03T03:57:48.943Z,3.00
2022-09-03T04:00:16.826Z,4.70
2022-09-03T04:02:44.194Z,2.67
2022-09-03T04:05:11.641Z,3.03
2022-09-03T04:07:38.873Z,5.88
2022-09-03T04:10:07.632Z,3.88
2022-09-03T04:12:36.325Z,4.32
2022-09-03T04:15:04.130Z,5.03
2022-09-03T04:17:31.573Z,4.65
2022-09-03T04:19:58.706Z,5.22
2022-09-03T04:22:26.013Z,5.10
2022-09-03T04:24:53.332Z,8.10
2022-09-03T04:27:20.726Z,4.50
2022-09-03T04:29:49.375Z,10.18
2022-09-03T04:32:34.954Z,5.20
2022-09-03T04:35:02.213Z,7.55
2022-09-03T04:37:29.411Z,7.15
2022-09-03T04:39:57.407Z,11.48
2022-09-03T04:42:24.657Z,15.52
2022-09-03T04:44:53.265Z,10.43
2022-09-03T04:47:20.449Z,12.80
2022-09-03T04:49:48.634Z,13.20
2022-09-03T04:52:15.737Z,14.73
2022-09-03T04:54:43.366Z,15.00
2022-09-03T04:57:10.544Z,9.55
2022-09-03T04:59:38.859Z,8.95
2022-09-03T05:02:10.564Z,11.55
2022-09-03T05:04:38.023Z,14.43
2022-09-03T05:07:05.190Z,12.13
2022-09-03T05:09:32.395Z,11.50
2022-09-03T05:11:59.631Z,12.10
2022-09-03T05:14:27.026Z,11.20
2022-09-03T05:16:54.631Z,11.73
2022-09-03T05:19:23.307Z,10.65
2022-09-03T05:21:50.698Z,10.50
2022-09-03T05:24:21.413Z,22.40
2022-09-03T05:26:49.019Z,10.15
2022-09-03T05:29:16.188Z,11.88
2022-09-03T05:31:43.539Z,12.18
2022-09-03T05:34:18.308Z,13.98
2022-09-03T05:36:50.040Z,11.20
2022-09-03T05:39:17.325Z,14.38
2022-09-03T05:41:44.600Z,14.23
2022-09-03T05:44:12.321Z,18.60
2022-09-03T05:46:39.560Z,14.15
2022-09-03T05:49:07.917Z,17.77
2022-09-03T05:51:36.998Z,9.93
2022-09-03T05:54:07.414Z,10.00
2022-09-03T05:56:38.005Z,14.13
2022-09-03T05:59:08.146Z,14.85
2022-09-03T06:01:37.058Z,17.13
2022-09-03T06:04:06.398Z,11.50
2022-09-03T06:06:35.245Z,16.02
2022-09-03T06:09:04.397Z,9.43
2022-09-03T06:11:35.546Z,11.90
2022-09-03T06:14:09.069Z,9.50
2022-09-03T06:16:39.103Z,11.02
2022-09-03T06:19:14.117Z,11.90
2022-09-03T06:24:14.880Z,8.93
2022-09-03T06:26:43.830Z,9.55
2022-09-03T06:29:11.741Z,10.35
2022-09-03T06:31:39.876Z,13.88
2022-09-03T06:34:07.165Z,12.80
2022-09-03T06:36:34.662Z,12.88
2022-09-03T06:39:02.292Z,12.90
2022-09-03T06:41:33.187Z,12.23
2022-09-03T06:44:04.280Z,11.35
2022-09-03T06:46:33.944Z,13.25
2022-09-03T06:49:01.327Z,18.63
2022-09-03T06:51:30.969Z,13.90
2022-09-03T06:54:01.478Z,16.05
2022-09-03T06:56:29.209Z,10.10
2022-09-03T06:58:58.754Z,10.70
2022-09-03T07:01:31.271Z,9.27
2022-09-03T07:04:01.096Z,11.70
2022-09-03T07:06:30.869Z,11.35
2022-09-03T07:09:00.301Z,16.45
2022-09-03T07:11:29.577Z,9.80
2022-09-03T07:13:58.201Z,9.18
2022-09-03T07:16:28.688Z,12.77
2022-09-03T07:18:57.198Z,9.05
2022-09-03T07:21:26.128Z,9.20
2022-09-03T07:23:54.502Z,7.47
2022-09-03T07:26:23.854Z,9.73
2022-09-03T07:28:53.538Z,12.88
2022-09-03T07:31:25.873Z,9.40
2022-09-03T07:33:55.987Z,7.22
2022-09-03T07:36:24.970Z,12.73
2022-09-03T07:38:55.685Z,8.15
2022-09-03T07:41:29.079Z,9.98
2022-09-03T07:43:57.300Z,9.10
2022-09-03T07:46:27.321Z,10.43
2022-09-03T07:48:57.653Z,8.30
2022-09-03T07:51:26.755Z,10.57
2022-09-03T07:53:56.111Z,9.80
2022-09-03T07:56:23.852Z,7.03
2022-09-03T07:58:51.457Z,12.35
2022-09-03T08:01:20.757Z,8.02
2022-09-03T08:03:49.509Z,10.98
2022-09-03T08:06:20.129Z,10.70
2022-09-03T08:08:47.905Z,10.00
2022-09-03T08:11:16.995Z,9.35
2022-09-03T08:13:46.610Z,7.88
2022-09-03T08:16:16.215Z,8.40
2022-09-03T08:18:43.480Z,10.57
2022-09-03T08:21:14.170Z,10.50
2022-09-03T08:23:45.118Z,11.10
2022-09-03T08:26:13.157Z,7.85
2022-09-03T08:28:41.348Z,10.85
2022-09-03T08:31:11.495Z,6.18
2022-09-03T08:33:41.205Z,7.07
2022-09-03T08:36:10.430Z,6.30
2022-09-03T08:38:38.355Z,8.48
2022-09-03T08:41:11.141Z,6.43
2022-09-03T08:43:55.371Z,10.05
2022-09-03T08:46:26.813Z,8.13
2022-09-03T08:48:59.196Z,17.30
2022-09-03T08:51:30.045Z,8.93
2022-09-03T08:53:59.308Z,8.02
2022-09-03T08:56:29.600Z,10.32
2022-09-03T08:58:57.840Z,7.28
2022-09-03T09:01:37.254Z,7.63
2022-09-03T09:04:14.369Z,7.00
2022-09-03T09:06:50.553Z,6.35
2022-09-03T09:09:28.721Z,9.13
2022-09-03T09:12:08.242Z,5.95
2022-09-03T09:14:40.782Z,5.68
2022-09-03T09:17:28.213Z,6.20
2022-09-03T09:20:07.391Z,10.15
2022-09-03T09:22:38.883Z,6.78
2022-09-03T09:25:14.318Z,6.50
2022-09-03T09:27:55.059Z,7.28
2022-09-03T09:30:22.481Z,11.93
2022-09-03T09:32:49.914Z,5.07
2022-09-03T09:35:18.912Z,4.63
2022-09-03T09:37:51.430Z,4.65
2022-09-03T09:40:28.227Z,4.45
2022-09-03T09:43:11.029Z,4.90
2022-09-03T09:45:40.866Z,7.15
2022-09-03T09:48:18.653Z,7.07
2022-09-03T09:50:46.342Z,6.35
2022-09-03T09:53:18.062Z,7.68
2022-09-03T09:55:53.590Z,8.98
2022-09-03T09:58:24.272Z,10.57
2022-09-03T10:01:00.768Z,6.78
2022-09-03T10:03:29.998Z,11.45
2022-09-03T10:06:22.473Z,9.60
2022-09-03T10:08:49.910Z,7.43
2022-09-03T10:11:20.274Z,10.05
2022-09-03T10:13:50.092Z,8.73
2022-09-03T10:16:23.445Z,8.35
2022-09-03T10:19:00.010Z,8.98
2022-09-03T10:21:34.365Z,9.10
2022-09-03T10:24:15.792Z,9.45
2022-09-03T10:26:46.669Z,11.52
2022-09-03T10:29:23.736Z,11.45
2022-09-03T10:32:03.825Z,16.00
2022-09-03T10:34:38.791Z,12.57
2022-09-03T10:39:52.448Z,14.35
2022-09-03T10:42:35.603Z,12.45
2022-09-03T10:45:12.502Z,12.05
2022-09-03T10:48:06.895Z,14.45
2022-09-03T10:50:41.863Z,13.60
2022-09-03T10:53:18.541Z,13.25
2022-09-03T10:55:55.989Z,19.77
2022-09-03T10:58:40.628Z,14.85
2022-09-03T11:01:19.032Z,12.10
2022-09-03T11:03:49.079Z,13.32
2022-09-03T11:06:23.613Z,12.43
2022-09-03T11:09:02.038Z,12.98
2022-09-03T11:11:38.203Z,15.85
2022-09-03T11:14:10.059Z,20.17
2022-09-03T11:16:45.920Z,17.75
2022-09-03T11:19:17.092Z,14.98
2022-09-03T11:21:46.002Z,14.73
2022-09-03T11:24:17.462Z,13.95
2022-09-03T11:26:46.075Z,14.65
2022-09-03T11:29:19.690Z,14.70
2022-09-03T11:31:58.777Z,12.30
2022-09-03T11:34:32.917Z,16.80
2022-09-03T11:37:17.592Z,17.30
2022-09-03T11:39:53.522Z,13.43
2022-09-03T11:42:37.172Z,16.42
2022-09-03T11:45:24.131Z,12.82
2022-09-03T11:47:54.420Z,15.60
2022-09-03T11:50:24.675Z,17.88
2022-09-03T11:52:53.954Z,17.27
2022-09-03T11:55:34.786Z,43.92
2022-09-03T11:58:20.818Z,15.50
2022-09-03T12:00:50.618Z,17.00
2022-09-03T12:03:28.575Z,15.23
2022-09-03T12:06:35.230Z,15.35
2022-09-03T12:09:23.612Z,18.55
2022-09-03T12:12:02.314Z,15.73
2022-09-03T12:14:42.594Z,17.50
2022-09-03T12:17:21.517Z,23.40
2022-09-03T12:19:53.870Z,20.02
2022-09-03T12:22:23.582Z,19.30
2022-09-03T12:24:51.176Z,16.67
2022-09-03T12:27:24.930Z,18.85
2022-09-03T12:29:58.064Z,15.82
2022-09-03T12:32:26.710Z,24.42
2022-09-03T12:34:55.738Z,16.85
2022-09-03T12:40:21.682Z,17.52
2022-09-03T12:42:49.888Z,17.17
2022-09-03T12:45:20.834Z,15.27
2022-09-03T12:47:48.126Z,16.00
2022-09-03T12:50:19.996Z,18.60
2022-09-03T12:52:52.744Z,17.02
2022-09-03T12:55:35.056Z,14.73
2022-09-03T12:58:11.384Z,15.70
2022-09-03T13:00:45.683Z,13.23
2022-09-03T13:03:18.551Z,12.82
2022-09-03T13:05:52.007Z,12.45
2022-09-03T13:08:23.629Z,11.05
2022-09-03T13:10:53.949Z,15.43
2022-09-03T13:13:24.610Z,13.27
2022-09-03T13:16:15.680Z,11.18
2022-09-03T13:18:52.933Z,9.48
2022-09-03T13:21:32.462Z,9.43
2022-09-03T13:24:26.009Z,9.68
2022-09-03T13:27:06.189Z,11.98
2022-09-03T13:29:55.082Z,9.57
2022-09-03T13:32:34.305Z,9.90
2022-09-03T13:35:08.200Z,7.78
2022-09-03T13:37:40.674Z,11.50
2022-09-03T13:40:16.167Z,10.73
2022-09-03T13:42:50.844Z,8.15
2022-09-03T13:45:29.886Z,11.80
2022-09-03T13:48:19.670Z,10.77
2022-09-03T13:50:57.663Z,11.23
2022-09-03T13:53:37.793Z,10.95
2022-09-03T13:56:16.330Z,9.43
2022-09-03T13:58:46.581Z,9.52
2022-09-03T14:01:20.937Z,9.10
2022-09-03T14:03:52.757Z,12.15
2022-09-03T14:06:41.154Z,7.22
2022-09-03T14:09:16.725Z,7.82
2022-09-03T14:11:55.699Z,6.68
2022-09-03T14:14:37.933Z,7.78
2022-09-03T14:17:13.774Z,8.73
2022-09-03T14:19:48.682Z,11.80
2022-09-03T14:22:20.965Z,12.63
2022-09-03T14:24:54.578Z,8.55
2022-09-03T14:27:26.843Z,8.98
2022-09-03T14:30:02.221Z,23.17
2022-09-03T14:32:42.483Z,8.60
2022-09-03T14:35:39.852Z,7.65
2022-09-03T14:38:26.048Z,11.80
2022-09-03T14:41:06.951Z,9.07
2022-09-03T14:44:17.458Z,11.55
2022-09-03T14:46:58.914Z,10.35
2022-09-03T14:49:55.265Z,5.88
2022-09-03T14:52:41.829Z,8.90
2022-09-03T14:55:19.290Z,8.18
2022-09-03T14:58:08.102Z,8.10
2022-09-03T15:00:47.267Z,9.30
2022-09-03T15:03:31.301Z,7.00
2022-09-03T15:06:21.114Z,6.22
2022-09-03T15:09:23.162Z,9.18
2022-09-03T15:11:55.659Z,8.52
2022-09-03T15:14:30.132Z,8.15
2022-09-03T15:19:48.026Z,9.98
2022-09-03T15:22:27.708Z,9.23
2022-09-03T15:25:03.357Z,10.32
2022-09-03T15:27:44.435Z,12.07
2022-09-03T15:30:18.413Z,7.90
2022-09-03T15:33:07.383Z,8.77
2022-09-03T15:35:51.607Z,13.05
2022-09-03T15:38:25.151Z,18.13
2022-09-03T15:40:57.157Z,11.85
2022-09-03T15:43:28.470Z,9.15
2022-09-03T15:46:00.181Z,7.93
2022-09-03T15:48:34.643Z,10.82
2022-09-03T15:51:13.925Z,11.95
2022-09-03T15:53:51.112Z,13.88
2022-09-03T15:56:25.929Z,11.95
2022-09-03T15:59:00.497Z,11.68
2022-09-03T16:01:36.975Z,12.32
2022-09-03T16:04:17.626Z,11.55
2022-09-03T16:06:54.073Z,10.40
2022-09-03T16:09:44.036Z,10.40
2022-09-03T16:12:21.849Z,11.95
2022-09-03T16:14:58.473Z,11.13
2022-09-03T16:17:34.113Z,12.60
2022-09-03T16:20:05.041Z,12.25
2022-09-03T16:22:38.866Z,12.40
2022-09-03T16:25:14.527Z,10.45
2022-09-03T16:27:56.507Z,18.60
2022-09-03T16:30:37.654Z,19.95
2022-09-03T16:33:21.727Z,13.57
2022-09-03T16:35:56.776Z,12.63
2022-09-03T16:41:00.605Z,12.73
2022-09-03T16:43:41.008Z,11.02
2022-09-03T16:46:23.263Z,13.52
2022-09-03T16:49:01.912Z,13.30
2022-09-03T16:51:37.438Z,14.05
2022-09-03T16:54:19.964Z,9.82
2022-09-03T16:56:55.410Z,10.98
2022-09-03T16:59:36.003Z,14.48
2022-09-03T17:02:39.848Z,10.45
2022-09-03T17:05:37.548Z,8.93
2022-09-03T17:08:15.888Z,13.00
2022-09-03T17:10:49.108Z,9.43
2022-09-03T17:13:46.973Z,11.10
2022-09-03T17:16:27.422Z,8.80
2022-09-03T17:19:02.019Z,13.73
2022-09-03T17:21:41.988Z,10.95
2022-09-03T17:24:36.216Z,10.70
2022-09-03T17:27:21.095Z,10.15
2022-09-03T17:30:03.751Z,12.48
2022-09-03T17:32:47.939Z,10.13
2022-09-03T17:35:19.269Z,9.95
2022-09-03T17:37:58.387Z,11.50
2022-09-03T17:40:41.786Z,12.18
2022-09-03T17:43:18.949Z,10.68
2022-09-03T17:45:54.708Z,8.30
2022-09-03T17:48:40.675Z,10.35
2022-09-03T17:51:15.536Z,9.23
2022-09-03T17:53:50.870Z,12.07
2022-09-03T17:56:26.999Z,10.57
2022-09-03T17:59:04.004Z,10.75
2022-09-03T18:01:37.652Z,11.27
2022-09-03T18:04:20.109Z,16.77
2022-09-03T18:06:57.440Z,9.95
2022-09-03T18:09:37.624Z,10.45
2022-09-03T18:12:11.775Z,12.98
2022-09-03T18:14:49.364Z,12.90
2022-09-03T18:17:25.973Z,12.93
2022-09-03T18:20:18.903Z,11.95
2022-09-03T18:23:10.081Z,9.60
2022-09-03T18:26:02.340Z,11.50
2022-09-03T18:28:57.457Z,11.52
2022-09-03T18:31:44.254Z,10.63
2022-09-03T18:34:30.972Z,32.20
2022-09-03T18:37:17.774Z,16.40
2022-09-03T18:40:05.825Z,12.57
2022-09-03T18:43:03.033Z,10.32
2022-09-03T18:49:13.858Z,9.80
2022-09-03T18:52:11.442Z,9.48
2022-09-03T18:55:13.662Z,9.95
2022-09-03T18:58:14.188Z,8.40
2022-09-03T19:01:08.340Z,7.38
2022-09-03T19:04:02.764Z,11.07
2022-09-03T19:06:56.228Z,12.38
2022-09-03T19:09:54.477Z,9.27
2022-09-03T19:12:59.183Z,10.27
2022-09-03T19:15:51.383Z,17.77
2022-09-03T19:18:52.793Z,7.28
2022-09-03T19:21:46.377Z,9.05
2022-09-03T19:24:32.661Z,11.48
2022-09-03T19:27:51.625Z,10.55
2022-09-03T19:30:37.027Z,7.32
2022-09-03T19:33:32.024Z,6.80
2022-09-03T19:36:29.040Z,6.63
2022-09-03T19:39:29.228Z,4.95
2022-09-03T19:42:22.989Z,6.60
2022-09-03T19:45:20.117Z,8.00
2022-09-03T19:48:24.767Z,4.75
2022-09-03T19:51:24.096Z,4.10
2022-09-03T19:54:11.296Z,6.55
2022-09-03T19:56:59.174Z,6.93
2022-09-03T19:59:53.628Z,6.72
2022-09-03T20:02:39.658Z,5.78
2022-09-03T20:05:30.234Z,4.35
2022-09-03T20:08:19.000Z,3.50
2022-09-03T20:10:51.316Z,9.38
2022-09-03T20:13:20.885Z,5.63
2022-09-03T20:15:58.617Z,6.15
2022-09-03T20:18:36.111Z,8.43
2022-09-03T20:21:11.087Z,8.82
2022-09-03T20:23:47.323Z,6.75
2022-09-03T20:26:25.509Z,8.43
2022-09-03T20:29:10.821Z,6.43
2022-09-03T20:31:46.153Z,7.80
2022-09-03T20:34:27.861Z,6.78
2022-09-03T20:37:02.523Z,5.63
2022-09-03T20:39:44.893Z,7.80
2022-09-03T20:42:39.298Z,11.65
2022-09-03T20:45:14.341Z,5.38
2022-09-03T20:50:41.210Z,7.47
2022-09-03T20:53:19.344Z,7.80
2022-09-03T20:55:50.712Z,5.82
2022-09-03T20:58:26.438Z,5.72
2022-09-03T21:01:03.524Z,6.90
2022-09-03T21:03:35.359Z,9.45
2022-09-03T21:06:20.325Z,8.48
2022-09-03T21:09:11.573Z,6.15
2022-09-03T21:11:46.946Z,7.25
2022-09-03T21:14:28.571Z,8.43
2022-09-03T21:17:05.962Z,7.05
2022-09-03T21:19:46.057Z,3.40
2022-09-03T21:22:23.098Z,6.95
2022-09-03T21:24:54.927Z,2.45
2022-09-03T21:27:29.637Z,4.45
2022-09-03T21:30:02.175Z,4.25
2022-09-03T21:32:35.739Z,2.47
2022-09-03T21:35:13.573Z,9.50
2022-09-03T21:37:49.860Z,5.50
2022-09-03T21:40:24.381Z,2.00
2022-09-03T21:43:01.075Z,2.50
2022-09-03T21:45:34.272Z,3.15
2022-09-03T21:48:07.870Z,1.92
2022-09-03T21:50:46.714Z,2.92
2022-09-03T21:53:20.498Z,3.28
2022-09-03T21:56:01.187Z,4.03
2022-09-03T21:58:47.175Z,5.25
2022-09-03T22:01:20.428Z,8.48
2022-09-03T22:03:47.789Z,6.05
2022-09-03T22:06:25.193Z,1.90
2022-09-03T22:09:01.996Z,3.38
2022-09-03T22:11:35.062Z,1.65
2022-09-03T22:14:09.994Z,6.07
2022-09-03T22:16:42.530Z,2.00
2022-09-03T22:19:09.974Z,3.28
2022-09-03T22:21:45.632Z,2.58
2022-09-03T22:24:24.770Z,2.05
2022-09-03T22:26:57.153Z,3.97
2022-09-03T22:29:38.776Z,3.03
2022-09-03T22:32:15.841Z,3.08
2022-09-03T22:34:57.320Z,2.80
2022-09-03T22:37:38.030Z,4.63
2022-09-03T22:40:15.771Z,4.85
2022-09-03T22:43:08.933Z,6.57
2022-09-03T22:45:49.101Z,4.93
2022-09-03T22:48:31.013Z,4.70
2022-09-03T22:50:59.848Z,4.32
2022-09-03T22:53:38.353Z,3.00
2022-09-03T22:56:08.407Z,3.15
2022-09-03T22:58:39.625Z,4.32
2022-09-03T23:01:16.647Z,4.70
2022-09-03T23:03:48.598Z,3.63
2022-09-03T23:06:25.439Z,3.17
2022-09-03T23:08:59.238Z,3.15
2022-09-03T23:11:31.579Z,7.30
2022-09-03T23:14:03.693Z,3.15
2022-09-03T23:16:38.750Z,3.92
2022-09-03T23:22:02.770Z,3.40
2022-09-03T23:24:35.278Z,6.57
2022-09-03T23:27:06.702Z,3.40
2022-09-03T23:29:37.478Z,4.55
2022-09-03T23:32:09.411Z,10.27
2022-09-03T23:34:36.962Z,4.88
2022-09-03T23:37:34.889Z,4.75
2022-09-03T23:40:31.019Z,5.68
2022-09-03T23:45:46.174Z,4.35
2022-09-03T23:48:24.655Z,5.95
2022-09-03T23:51:02.959Z,6.13
2022-09-03T23:53:39.416Z,5.93
2022-09-03T23:56:25.714Z,8.43
2022-09-03T23:59:03.375Z,6.88
